• Join FlightAware (Why Join?)
  • Login
  • US Flag 
06:37AM EST


 

Airport Tracker/Info


-or-


 

Live Flight TrackerFlight Track Log ✈ FLG4262 ✈ 26-Sep-2013 ✈ KDTW - KBGM

Flight Track Log - Related Links

Times and Time Zones

All times are in EDT time to prevent confusion due to time zone crossing. See the FLG4262 flight status page for this flight to view local times or setup timezone preferences in your user account.

Time Position Orientation Groundspeed Altitude Reporting Facility
EDT Latitude Longitude Course Direction KTS MPH feet Rate Location/Type
03:51PM 42.1925 -83.3539 84° East 164 189 1,300  Level Cleveland Center
03:52PM 42.1606 -83.3606 189° South 211 243 2,100 1,860 Climbing Cleveland Center
03:53PM 42.1172 -83.3592 179° South 202 232 4,000 1,920 Climbing Cleveland Center
03:53PM 42.0975 -83.3603 182° South 261 300 4,100 2,280 Climbing Cleveland Center
03:54PM 42.0461 -83.3358 161° South 253 291 6,400 2,940 Climbing Cleveland Center
03:54PM 42.0386 -83.3125 113° Southeast 267 307 7,100 2,460 Climbing Cleveland Center
03:55PM 42.2293 -82.7720 56° Northeast  Level Estimated
03:55PM 42.0517 -83.2392 76° East 274 315 9,000  Level Cleveland Center
03:55PM 42.0628 -83.2147 59° Northeast 271 312 9,600 1,140 Climbing Cleveland Center
03:56PM 42.2330 -82.6266 94° East  Level Estimated
03:56PM 42.0886 -83.1492 62° Northeast 286 329 10,200  Level Cleveland Center
03:57PM 42.2450 -82.4820 84° East  Level FlightAware Approximate
03:57PM 42.1381 -83.0231 62° Northeast 319 367 12,800  Level Cleveland Center
03:58PM 42.1822 -82.9144 61° Northeast 332 382 14,400 1,500 Climbing Cleveland Center
03:59PM 42.2283 -82.8017 61° Northeast 343 395 15,900 1,260 Climbing Cleveland Center
04:00PM 42.2744 -82.6861 62° Northeast 351 404 17,100 1,020 Climbing Cleveland Center
04:01PM 42.3217 -82.5656 62° Northeast 362 417 18,100 1,200 Climbing Cleveland Center
04:02PM 42.3658 -82.4103 69° East 378 435 19,600 1,140 Climbing Cleveland Center
04:03PM 42.3586 -82.2650 94° East 388 447 20,500 840 Climbing Cleveland Center
04:04PM 42.3533 -82.1250 93° East 391 450 21,400 840 Climbing Cleveland Center
04:05PM 42.3481 -81.9733 93° East 398 458 22,300 720 Climbing Cleveland Center
04:06PM 42.3394 -81.7936 94° East 406 467 23,000 780 Climbing Cleveland Center
04:07PM 42.3325 -81.6344 93° East 417 480 24,000 720 Climbing Cleveland Center
04:08PM 42.3253 -81.4783 94° East 414 476 24,600 600 Climbing Cleveland Center
04:09PM 42.3175 -81.3192 94° East 418 481 25,300 600 Climbing Cleveland Center
04:10PM 42.3169 -81.1575 90° East 424 488 25,900 480 Climbing Cleveland Center
04:11PM 42.3161 -80.9928 90° East 431 496 26,400 480 Climbing Cleveland Center
04:12PM 42.3164 -80.8267 90° East 437 503 26,900 240 Climbing Cleveland Center
04:13PM 42.3172 -80.6625 90° East 434 499 27,000  Climbing Cleveland Center
04:14PM 42.3167 -80.4631 90° East 448 516 27,000  Level Cleveland Center
04:16PM 42.3167 -80.2942 90° East 446 513 27,000  Level Cleveland Center
04:17PM 42.3153 -80.1292 91° East 437 503 27,000  Level Cleveland Center
04:18PM 42.3136 -79.9719 91° East 436 502 27,000  Level Cleveland Center
04:19PM 42.3122 -79.8106 91° East 434 499 27,000 -120 Level Cleveland Center
04:20PM 42.3097 -79.6172 91° East 433 498 26,800 -600 Descending Cleveland Center
04:21PM 42.3075 -79.4528 91° East 440 506 25,800 -900 Descending Cleveland Center
04:22PM 42.3047 -79.2844 91° East 450 518 25,000 -420 Descending Cleveland Center
04:23PM 42.3025 -79.1200 91° East 440 506 25,000  Level Cleveland Center
04:24PM 42.2992 -78.9589 92° East 431 496 25,000  Level Cleveland Center
04:25PM 42.2972 -78.7839 91° East 420 483 25,000  Level Cleveland Center
04:26PM 42.2936 -78.6281 92° East 418 481 25,000  Level Cleveland Center
04:27PM 42.2903 -78.4747 92° East 414 476 25,000  Level Cleveland Center
04:28PM 42.2872 -78.3231 92° East 409 471 25,000 -420 Level Cleveland Center
04:29PM 42.2822 -78.1378 92° East 412 474 24,200 -900 Descending Cleveland Center
04:30PM 42.2786 -77.9764 92° East 428 493 23,200 -1,020 Descending Cleveland Center
04:31PM 42.2744 -77.8131 92° East 439 505 22,200 -1,020 Descending Cleveland Center
04:32PM 42.2694 -77.6503 92° East 439 505 21,200 -1,080 Descending Cleveland Center
04:33PM 42.2633 -77.4594 92° East 431 496 20,000 -1,080 Descending Cleveland Center
04:34PM 42.2597 -77.3014 92° East 427 491 19,000 -1,020 Descending Cleveland Center
04:35PM 42.2533 -77.1433 93° East 426 490 18,000 -1,020 Descending Cleveland Center
04:36PM 42.2483 -76.9786 92° East 426 490 17,000 -1,500 Descending New York Center
04:37PM 42.2417 -76.8239 93° East 426 490 15,100 -1,800 Descending New York Center
04:38PM 42.2358 -76.6525 93° East 401 461 13,200 -1,620 Descending Cleveland Center
04:39PM 42.2317 -76.5111 92° East 385 443 11,600 -1,500 Descending Cleveland Center
04:40PM 42.2258 -76.3836 93° East 328 377 10,100 -1,500 Descending Cleveland Center
04:41PM 42.2147 -76.3117 102° East 327 376 8,900 -1,740 Descending New York Center
04:42PM 42.1942 -76.2119 106° East 294 338 7,100 -1,860 Descending New York Center
04:43PM 42.1758 -76.1125 104° East 281 323 5,200 -1,620 Descending New York Center
04:44PM 42.1444 -76.0261 116° Southeast 263 303 4,000 -720 Descending New York Center
04:45PM 42.1072 -75.9700 132° Southeast 234 269 3,900 -360 Descending New York Center
04:46PM 42.1242 -75.9183 66° East 170 196 3,300 -720 Descending New York Center
04:47PM 42.1625 -75.9436 334° Northwest 81 93 2,500 -660 Descending New York Center
04:48PM 42.1933 -75.9544 345° North 86 99 2,000 -540 Descending New York Center